»·PEaware :: N915MA KGPI-CZNL

N915MA :: KGPI-CZNL

FLIGHT INFORMATION

Flight Status: Arrived
Operator: Privately registered:
United States
More flights under this callsign
Pilot: Logan D. (20254)
Aircraft: Unknown
(KODI)
More flights by this aircraft type
Origin: KGPI Glacier Park Intl
United States
Destination: CZNL Nelson
Canada
More flights between these airports :: More routes between these airports
Route:
File this flight plan on PilotEdge
Remarks: +CW /
Altitude:
(Current/Filed)
10,500ft
Speed:
(Current/Filed)
120kts
Departed: 15-May-19 12:20 AM
Arrived: 15-May-19 01:23 AM
Distance/Time
Traveled:
140nm/1:03
Distance/Time
To Go:
Arrived

Flight Plot

Page will automatically refresh every two minutes.


Map Options




Map Legend


Flown Route
Filed Route
Departure Airport
Arrival Airport
Navaid (VOR, NDB)
Fix

Horizontal Profiles

Position Reports

Time Latitude Longitude Heading Altitude Ground
Speed
14-May-19 23:45 48.316405 -114.244833 125 2981ft 0kts
14-May-19 23:46 48.316405 -114.244833 125 2981ft 0kts
14-May-19 23:47 48.316405 -114.244833 125 2981ft 0kts
14-May-19 23:48 48.316405 -114.244833 125 2981ft 0kts
14-May-19 23:49 48.316405 -114.244833 125 2981ft 0kts
14-May-19 23:50 48.316405 -114.244833 125 2981ft 0kts
14-May-19 23:51 48.316405 -114.244833 125 2981ft 0kts
14-May-19 23:52 48.316405 -114.244833 125 2981ft 0kts
14-May-19 23:53 48.316405 -114.244833 125 2981ft 0kts
14-May-19 23:54 48.316405 -114.244833 125 2981ft 0kts
14-May-19 23:55 48.316405 -114.244833 125 2981ft 0kts
14-May-19 23:56 48.316405 -114.244833 125 2981ft 0kts
14-May-19 23:57 48.316405 -114.244833 125 2981ft 0kts
14-May-19 23:58 48.316405 -114.244833 125 2981ft 0kts
14-May-19 23:59 48.316404 -114.244833 124 2981ft 0kts
15-May-19 00:00 48.316404 -114.244833 124 2981ft 0kts
15-May-19 00:01 48.316404 -114.244833 124 2981ft 0kts
15-May-19 00:02 48.316404 -114.244833 124 2981ft 0kts
15-May-19 00:03 48.316404 -114.244833 124 2981ft 0kts
15-May-19 00:04 48.316404 -114.244833 124 2981ft 0kts
15-May-19 00:05 48.316404 -114.244833 124 2981ft 0kts
15-May-19 00:06 48.316404 -114.244833 124 2981ft 0kts
15-May-19 00:07 48.316404 -114.244833 124 2981ft 0kts
15-May-19 00:08 48.316404 -114.244833 124 2981ft 0kts
15-May-19 00:09 48.316404 -114.244833 124 2981ft 0kts
15-May-19 00:10 48.316259 -114.245426 245 2981ft 8kts
15-May-19 00:11 48.316051 -114.245741 214 2981ft 7kts
15-May-19 00:12 48.314671 -114.249009 225 2981ft 9kts
15-May-19 00:13 48.312508 -114.251332 218 2982ft 11kts
15-May-19 00:14 48.308818 -114.255139 215 2982ft 19kts
15-May-19 00:15 48.304808 -114.259351 215 2981ft 17kts
15-May-19 00:16 48.301337 -114.262930 213 2981ft 17kts
15-May-19 00:17 48.300666 -114.264112 294 2982ft 0kts
15-May-19 00:18 48.301754 -114.264597 33 2982ft 9kts
15-May-19 00:19 48.314826 -114.250352 40 3195ft 78kts
15-May-19 00:20 48.336302 -114.224433 28 4807ft 116kts
15-May-19 00:21 48.367912 -114.225525 348 6769ft 128kts
15-May-19 00:22 48.405868 -114.236772 347 8238ft 146kts
15-May-19 00:23 48.451313 -114.247226 354 8491ft 180kts
15-May-19 00:24 48.504563 -114.250313 0 7727ft 193kts
15-May-19 00:25 48.542818 -114.285076 298 7497ft 183kts
15-May-19 00:26 48.559752 -114.352464 258 7504ft 181kts
15-May-19 00:27 48.551726 -114.427798 272 7483ft 182kts
15-May-19 00:28 48.560565 -114.504885 287 7022ft 193kts
15-May-19 00:29 48.581393 -114.580781 292 6269ft 179kts
15-May-19 00:30 48.597297 -114.649372 287 6763ft 176kts
15-May-19 00:31 48.613520 -114.699086 303 7291ft 169kts
15-May-19 00:32 48.644256 -114.756032 312 7464ft 180kts
15-May-19 00:33 48.679814 -114.810087 315 7463ft 181kts
15-May-19 00:34 48.716504 -114.862429 316 7461ft 176kts
15-May-19 00:35 48.752434 -114.912757 316 7463ft 175kts
15-May-19 00:36 48.789114 -114.964379 318 7467ft 183kts
15-May-19 00:37 48.826727 -115.016417 317 7500ft 184kts
15-May-19 00:38 48.864937 -115.068258 328 7495ft 184kts
15-May-19 00:39 48.907375 -115.112049 325 7500ft 184kts
15-May-19 00:40 48.948999 -115.154973 325 7497ft 172kts
15-May-19 00:41 48.988157 -115.195447 325 7500ft 169kts
15-May-19 00:42 49.027146 -115.235736 325 7500ft 168kts
15-May-19 00:43 49.065989 -115.275877 325 7500ft 168kts
15-May-19 00:44 49.104922 -115.316112 325 7500ft 168kts
15-May-19 00:45 49.145396 -115.357860 325 7500ft 179kts
15-May-19 00:46 49.186802 -115.400561 325 7500ft 179kts
15-May-19 00:47 49.228022 -115.443073 326 7500ft 179kts
15-May-19 00:48 49.268009 -115.484418 326 7499ft 169kts
15-May-19 00:49 49.307010 -115.524728 326 7500ft 169kts
15-May-19 00:50 49.346165 -115.565199 326 7500ft 169kts
15-May-19 00:52 49.385129 -115.605473 326 7500ft 169kts
15-May-19 00:53 49.424183 -115.645842 326 7500ft 169kts
15-May-19 00:54 49.460667 -115.689862 285 7502ft 168kts
15-May-19 00:55 49.473669 -115.759514 285 7500ft 169kts
15-May-19 00:56 49.486497 -115.829385 285 7500ft 169kts
15-May-19 00:57 49.499251 -115.899029 285 7572ft 165kts
15-May-19 00:58 49.511045 -115.963598 285 8256ft 152kts
15-May-19 00:59 49.524894 -116.027802 298 8500ft 165kts
15-May-19 01:00 49.551336 -116.086130 276 8499ft 167kts
15-May-19 01:01 49.546342 -116.152324 242 9214ft 144kts
15-May-19 01:02 49.562196 -116.197412 290 10287ft 133kts
15-May-19 01:03 49.573229 -116.252775 284 11407ft 138kts
15-May-19 01:04 49.582813 -116.314210 282 11502ft 167kts
15-May-19 01:05 49.592648 -116.385160 281 11500ft 169kts
15-May-19 01:06 49.601972 -116.456163 281 11500ft 169kts
15-May-19 01:07 49.611103 -116.527262 281 11500ft 169kts
15-May-19 01:07 49.618662 -116.586750 281 11499ft 169kts
15-May-19 01:09 49.627530 -116.674198 268 9747ft 189kts
15-May-19 01:10 49.627414 -116.752161 270 7828ft 176kts
15-May-19 01:10 49.625507 -116.811217 262 6973ft 146kts
15-May-19 01:12 49.620904 -116.877070 264 6980ft 126kts
15-May-19 01:13 49.617798 -116.930744 264 6980ft 125kts
15-May-19 01:13 49.615622 -116.975540 265 6980ft 125kts
15-May-19 01:15 49.613128 -117.038304 265 6962ft 126kts
15-May-19 01:16 49.606616 -117.093958 253 6139ft 116kts
15-May-19 01:16 49.595438 -117.136358 241 5468ft 115kts
15-May-19 01:17 49.585111 -117.180899 246 4329ft 108kts
15-May-19 01:18 49.570885 -117.219856 223 3445ft 109kts
15-May-19 01:19 49.546999 -117.243817 205 3094ft 107kts
15-May-19 01:20 49.523788 -117.265136 212 2511ft 98kts
15-May-19 01:21 49.502205 -117.280466 223 2231ft 78kts
15-May-19 01:22 49.493078 -117.302916 234 1760ft 12kts
15-May-19 01:23 49.492245 -117.303612 59 1760ft 0kts
15-May-19 01:24 49.492245 -117.303612 59 1760ft 0kts
15-May-19 01:25 49.492245 -117.303612 59 1760ft 0kts
15-May-19 01:26 49.492245 -117.303612 59 1760ft 0kts
15-May-19 01:27 49.492245 -117.303612 59 1760ft 0kts
15-May-19 01:28 49.492245 -117.303612 59 1760ft 0kts
15-May-19 01:29 49.492245 -117.303612 59 1760ft 0kts
15-May-19 01:30 49.492245 -117.303612 59 1760ft 0kts
15-May-19 01:31 49.492245 -117.303612 59 1760ft 0kts
15-May-19 01:32 49.492245 -117.303612 59 1760ft 0kts
15-May-19 01:33 49.492245 -117.303612 59 1760ft 0kts
15-May-19 01:34 49.492245 -117.303612 59 1760ft 0kts
15-May-19 01:35 49.492245 -117.303612 59 1760ft 0kts
15-May-19 01:36 49.492245 -117.303612 59 1760ft 0kts
15-May-19 01:37 49.492245 -117.303612 59 1760ft 0kts

Navigation Log

Ident Type
Flight plan parsing failed, navigation log unavailable